This is the latest recevied weather packets stored in our database for station/object N4PWG. If no packets are shown the sender has not sent any weather packets the latest 10 day(s).
| Time | Temp. | Humidity | Pressure | Rain* | Wind** | Luminosity | Snow |
|---|---|---|---|---|---|---|---|
| 1778091232 | 13.89° C | 84% | 1032.2 hPa | 0 mm | - | 115 W/m² | - |
| 1778090929 | 13.89° C | 84% | 1032.5 hPa | 0 mm | - | 86 W/m² | - |
| 1778090625 | 13.89° C | 84% | 1032.3 hPa | 0 mm | - | 113 W/m² | - |
| 1778090321 | 13.89° C | 84% | 1032.3 hPa | 0 mm | - | 224 W/m² | - |
| 1778090018 | 13.89° C | 85% | 1031.9 hPa | 0 mm | - | 195 W/m² | - |
| 1778089715 | 13.89° C | 83% | 1032 hPa | 0 mm | - | 163 W/m² | - |
| 1778089413 | 13.89° C | 83% | 1031.8 hPa | 0 mm | - | 214 W/m² | - |
| 1778089110 | 13.89° C | 82% | 1031.7 hPa | 0 mm | - | 287 W/m² | - |
| 1778088807 | 13.89° C | 82% | 1032.3 hPa | 0 mm | - | 221 W/m² | - |
| 1778088504 | 13.89° C | 84% | 1032.5 hPa | 0 mm | - | 219 W/m² | - |
| 1778088201 | 13.89° C | 82% | 1032.6 hPa | 0 mm | - | 214 W/m² | - |
| 1778087898 | 14.44° C | 81% | 1032.6 hPa | 0 mm | - | 271 W/m² | - |
| 1778087595 | 13.89° C | 82% | 1032.2 hPa | 0 mm | - | 516 W/m² | - |
| 1778087293 | 13.89° C | 85% | 1032.2 hPa | 0 mm | - | 325 W/m² | - |
| 1778086988 | 13.89° C | 83% | 1032.2 hPa | 0 mm | - | 271 W/m² | - |
| 1778086688 | 13.33° C | 86% | 1032.2 hPa | 0 mm | - | 340 W/m² | - |
| 1778086385 | 12.78° C | 88% | 1032.3 hPa | 0 mm | - | 268 W/m² | - |
| 1778086081 | 12.78° C | 87% | 1032.3 hPa | 0 mm | - | 163 W/m² | - |
| 1778085778 | 12.78° C | 86% | 1032.4 hPa | 0 mm | - | 166 W/m² | - |
| 1778085475 | 13.33° C | 84% | 1032.2 hPa | 0 mm | - | 189 W/m² | - |
| 1778085170 | 12.78° C | 85% | 1031.9 hPa | 0 mm | - | 215 W/m² | - |
| 1778084866 | 12.78° C | 87% | 1031.8 hPa | 0 mm | - | 247 W/m² | - |
| 1778084564 | 12.78° C | 87% | 1032 hPa | 0 mm | - | 318 W/m² | - |
| 1778084256 | 12.78° C | 87% | 1031.8 hPa | 0 mm | - | 214 W/m² | - |
| 1778083953 | 13.33° C | 85% | 1031.7 hPa | 0 mm | - | 199 W/m² | - |
* Rain latest hour (hover to see other rain measurements)
** Current wind speed in m/s (hover to see current wind gust speed)